Time;durP1;ratioP1;P1;durP2;ratioP2;P2;SDS_P1;SDS_P2;PMS_P1;PMS_P2;Temp;Humidity;BMP_temperature;BMP_pressure;BME280_temperature;BME280_humidity;BME280_pressure;Samples;Min_cycle;Max_cycle;Signal;HPM_P1;HPM_P2
2022/12/01 00:02:10;;;;;;;;;;;;;;;;;;5046391;28;19971;-63
2022/12/01 00:04:36;;;;;;;;;;;;;;;;;;5045298;28;19962;-63
2022/12/01 00:07:02;;;;;;;;;;;;;;;;;;5045210;28;19948;-63
2022/12/01 00:12:12;;;;;;;;;;;;;;;;;;5047845;28;20290;-63
2022/12/01 00:14:38;;;;;;;;;;;;;;;;;;5047769;28;19916;-63
2022/12/01 00:17:04;;;;;;;;;;;;;;;;;;5049502;28;19936;-62
2022/12/01 00:19:30;;;;;;;;;;;;;;;;;;5046933;28;19921;-63
2022/12/01 00:21:56;;;;;;;;;;;;;;;;;;5050641;28;19912;-63
2022/12/01 00:24:22;;;;;;;;;;;;;;;;;;5046623;28;20046;-63
2022/12/01 00:26:48;;;;;;;;;;;;;;;;;;5046690;28;19921;-63
2022/12/01 00:29:14;;;;;;;;;;;;;;;;;;5049603;28;19917;-63
2022/12/01 00:31:40;;;;;;;;;;;;;;;;;;5045949;28;19916;-62
2022/12/01 00:34:06;;;;;;;;;;;;;;;;;;5042803;28;19920;-63
2022/12/01 00:36:31;;;;;;;;;;;;;;;;;;5042760;28;20409;-63
2022/12/01 00:38:57;;;;;;;;;;;;;;;;;;5046691;28;19940;-63
2022/12/01 00:41:23;;;;;;;;;;;;;;;;;;5045350;28;20003;-63
2022/12/01 00:43:49;;;;;;;;;;;;;;;;;;5047755;28;19921;-62
2022/12/01 00:46:15;;;;;;;;;;;;;;;;;;5044639;28;19917;-63
2022/12/01 00:48:41;;;;;;;;;;;;;;;;;;5047186;28;19999;-63
2022/12/01 00:51:07;;;;;;;;;;;;;;;;;;5042923;28;20035;-63
2022/12/01 00:53:33;;;;;;;;;;;;;;;;;;5045058;28;19921;-63
2022/12/01 00:55:58;;;;;;;;;;;;;;;;;;5047019;28;21488;-63
2022/12/01 00:58:24;;;;;;;;;;;;;;;;;;5047431;28;19913;-63
2022/12/01 01:00:50;;;;;;;;;;;;;;;;;;5046070;28;19949;-63
2022/12/01 01:03:16;;;;;;;;;;;;;;;;;;5048886;28;20379;-63
2022/12/01 01:05:42;;;;;;;;;;;;;;;;;;5048319;28;19996;-63
2022/12/01 01:08:08;;;;;;;;;;;;;;;;;;5048065;28;19919;-63
2022/12/01 01:10:34;;;;;;;;;;;;;;;;;;5042350;28;20003;-63
2022/12/01 01:13:00;;;;;;;;;;;;;;;;;;5049111;28;20341;-63
2022/12/01 01:15:26;;;;;;;;;;;;;;;;;;5049116;28;19916;-63
2022/12/01 01:17:51;;;;;;;;;;;;;;;;;;5045271;28;19924;-63
2022/12/01 01:20:17;;;;;;;;;;;;;;;;;;5044313;28;19940;-64
2022/12/01 01:22:43;;;;;;;;;;;;;;;;;;5045791;28;19978;-64
2022/12/01 01:25:09;;;;;;;;;;;;;;;;;;5039804;28;19913;-63
2022/12/01 01:27:35;;;;;;;;;;;;;;;;;;5048129;28;19916;-63
2022/12/01 01:30:01;;;;;;;;;;;;;;;;;;5044435;28;20493;-60
2022/12/01 01:32:27;;;;;;;;;;;;;;;;;;5047406;28;19919;-63
2022/12/01 01:34:52;;;;;;;;;;;;;;;;;;5044889;28;19958;-63
2022/12/01 01:37:18;;;;;;;;;;;;;;;;;;5049374;28;19917;-64
2022/12/01 01:39:44;;;;;;;;;;;;;;;;;;5042593;28;19913;-60
2022/12/01 01:42:10;;;;;;;;;;;;;;;;;;5041385;28;19978;-63
2022/12/01 01:44:36;;;;;;;;;;;;;;;;;;5041786;28;20015;-62
2022/12/01 01:47:02;;;;;;;;;;;;;;;;;;5046054;28;19917;-63
2022/12/01 01:49:27;;;;;;;;;;;;;;;;;;5048951;28;20016;-63
2022/12/01 01:51:56;;;;;;;;;;;;;;;;;;5042785;28;20367;-63
2022/12/01 01:54:22;;;;;;;;;;;;;;;;;;5047728;28;19913;-64
2022/12/01 01:56:48;;;;;;;;;;;;;;;;;;5046370;28;20007;-63
2022/12/01 01:59:14;;;;;;;;;;;;;;;;;;5025172;28;19913;-63
2022/12/01 02:01:39;;;;;;;;;;;;;;;;;;5045157;28;19920;-63
2022/12/01 02:04:05;;;;;;;;;;;;;;;;;;5051637;28;20441;-63
2022/12/01 02:06:31;;;;;;;;;;;;;;;;;;5048005;28;20003;-62
2022/12/01 02:08:57;;;;;;;;;;;;;;;;;;5048459;28;19913;-63
2022/12/01 02:11:23;;;;;;;;;;;;;;;;;;5052044;28;20478;-63
2022/12/01 02:13:50;;;;;;;;;;;;;;;;;;5050019;28;20011;-63
2022/12/01 02:16:16;;;;;;;;;;;;;;;;;;5050079;28;19951;-63
2022/12/01 02:18:41;;;;;;;;;;;;;;;;;;5046064;28;19960;-63
2022/12/01 02:21:07;;;;;;;;;;;;;;;;;;5052002;28;19912;-62
2022/12/01 02:23:33;;;;;;;;;;;;;;;;;;5052196;28;20015;-61
2022/12/01 02:25:59;;;;;;;;;;;;;;;;;;5032070;28;19916;-63
2022/12/01 02:28:25;;;;;;;;;;;;;;;;;;5052603;28;20550;-63
2022/12/01 02:30:51;;;;;;;;;;;;;;;;;;5048643;28;19917;-63
2022/12/01 02:33:17;;;;;;;;;;;;;;;;;;5050668;28;20334;-63
2022/12/01 02:35:42;;;;;;;;;;;;;;;;;;5049545;28;19917;-63
2022/12/01 02:38:08;;;;;;;;;;;;;;;;;;5049930;28;19928;-63
2022/12/01 02:40:34;;;;;;;;;;;;;;;;;;5047634;28;19919;-63
2022/12/01 02:43:02;;;;;;;;;;;;;;;;;;5046387;28;19917;-63
2022/12/01 02:45:28;;;;;;;;;;;;;;;;;;5047404;28;19925;-63
2022/12/01 02:47:54;;;;;;;;;;;;;;;;;;5052332;28;19986;-63
2022/12/01 02:50:20;;;;;;;;;;;;;;;;;;5047761;28;20394;-63
2022/12/01 02:52:46;;;;;;;;;;;;;;;;;;5049374;28;19975;-64
2022/12/01 02:55:12;;;;;;;;;;;;;;;;;;5050857;28;19923;-63
2022/12/01 02:57:37;;;;;;;;;;;;;;;;;;5046976;28;19913;-63
2022/12/01 03:00:03;;;;;;;;;;;;;;;;;;5048499;28;19917;-63
2022/12/01 03:02:29;;;;;;;;;;;;;;;;;;5050649;28;20024;-66
2022/12/01 03:04:55;;;;;;;;;;;;;;;;;;5048351;28;19916;-63
2022/12/01 03:07:22;;;;;;;;;;;;;;;;;;5032023;28;20051;-63
2022/12/01 03:09:48;;;;;;;;;;;;;;;;;;5045201;28;20338;-63
2022/12/01 03:12:14;;;;;;;;;;;;;;;;;;5046531;28;19966;-63
2022/12/01 03:14:40;;;;;;;;;;;;;;;;;;5046436;28;20298;-63
2022/12/01 03:17:06;;;;;;;;;;;;;;;;;;5051076;28;19912;-63
2022/12/01 03:19:32;;;;;;;;;;;;;;;;;;5052364;28;20400;-63
2022/12/01 03:21:58;;;;;;;;;;;;;;;;;;5048137;28;19917;-62
2022/12/01 03:24:24;;;;;;;;;;;;;;;;;;5047847;28;20389;-62
2022/12/01 03:26:50;;;;;;;;;;;;;;;;;;5049420;28;20500;-63
2022/12/01 03:29:16;;;;;;;;;;;;;;;;;;5046978;28;19913;-60
2022/12/01 03:31:42;;;;;;;;;;;;;;;;;;5041626;28;19919;-63
2022/12/01 03:34:08;;;;;;;;;;;;;;;;;;5049224;28;19913;-63
2022/12/01 03:36:34;;;;;;;;;;;;;;;;;;5048861;28;19997;-63
2022/12/01 03:39:00;;;;;;;;;;;;;;;;;;5047659;28;19920;-63
2022/12/01 03:41:26;;;;;;;;;;;;;;;;;;5044881;28;19920;-63
2022/12/01 03:43:52;;;;;;;;;;;;;;;;;;5045999;28;20291;-63
2022/12/01 03:46:18;;;;;;;;;;;;;;;;;;5091428;22;19977;-59
2022/12/01 03:48:44;;;;;;;;;;;;;;;;;;5087949;28;19919;-59
2022/12/01 03:51:10;;;;;;;;;;;;;;;;;;5089534;28;19963;-60
2022/12/01 03:53:36;;;;;;;;;;;;;;;;;;5084186;28;20341;-60
2022/12/01 03:56:02;;;;;;;;;;;;;;;;;;5087830;28;19998;-59
2022/12/01 03:58:27;;;;;;;;;;;;;;;;;;5087982;28;19916;-60
2022/12/01 04:00:56;;;;;;;;;;;;;;;;;;5086346;28;19912;-58
2022/12/01 04:03:22;;;;;;;;;;;;;;;;;;5086924;28;19958;-58
2022/12/01 04:05:48;;;;;;;;;;;;;;;;;;5082143;28;20378;-58
2022/12/01 04:08:13;;;;;;;;;;;;;;;;;;5083153;28;19912;-59
2022/12/01 04:10:39;;;;;;;;;;;;;;;;;;5081901;28;19947;-55
2022/12/01 04:13:10;;;;;;;;;;;;;;;;;;5084514;28;20290;-59
2022/12/01 04:15:36;;;;;;;;;;;;;;;;;;5083229;28;19991;-60
2022/12/01 04:18:02;;;;;;;;;;;;;;;;;;5084744;28;20445;-60
2022/12/01 04:20:28;;;;;;;;;;;;;;;;;;5083150;28;19920;-60
2022/12/01 04:22:54;;;;;;;;;;;;;;;;;;5085629;28;19919;-59
2022/12/01 04:25:20;;;;;;;;;;;;;;;;;;5081381;28;19912;-59
2022/12/01 04:27:45;;;;;;;;;;;;;;;;;;5087536;28;20279;-57
2022/12/01 04:30:12;;;;;;;;;;;;;;;;;;5080051;28;19916;-58
2022/12/01 04:32:37;;;;;;;;;;;;;;;;;;5086237;28;19923;-61
2022/12/01 04:35:03;;;;;;;;;;;;;;;;;;5087280;28;19916;-59
2022/12/01 04:37:29;;;;;;;;;;;;;;;;;;5086190;28;19919;-59
2022/12/01 04:39:55;;;;;;;;;;;;;;;;;;5087645;28;20016;-60
2022/12/01 04:42:21;;;;;;;;;;;;;;;;;;5083265;28;20346;-60
2022/12/01 04:44:47;;;;;;;;;;;;;;;;;;5082432;28;19924;-57
2022/12/01 04:47:13;;;;;;;;;;;;;;;;;;5086341;28;20390;-59
2022/12/01 04:49:38;;;;;;;;;;;;;;;;;;5083623;28;19919;-60
2022/12/01 04:52:04;;;;;;;;;;;;;;;;;;5087795;28;19957;-60
2022/12/01 04:54:30;;;;;;;;;;;;;;;;;;5087066;28;20332;-61
2022/12/01 04:56:56;;;;;;;;;;;;;;;;;;5087254;28;19912;-57
2022/12/01 04:59:22;;;;;;;;;;;;;;;;;;5085701;28;19920;-60
2022/12/01 05:01:48;;;;;;;;;;;;;;;;;;5078470;28;19927;-60
2022/12/01 05:04:14;;;;;;;;;;;;;;;;;;5085537;28;20020;-59
2022/12/01 05:06:40;;;;;;;;;;;;;;;;;;5083595;28;20392;-59
2022/12/01 05:09:06;;;;;;;;;;;;;;;;;;5085595;28;19912;-61
2022/12/01 05:11:31;;;;;;;;;;;;;;;;;;5085066;28;19916;-61
2022/12/01 05:13:57;;;;;;;;;;;;;;;;;;5087130;28;19977;-58
2022/12/01 05:16:23;;;;;;;;;;;;;;;;;;5085640;28;20407;-59
2022/12/01 05:18:49;;;;;;;;;;;;;;;;;;5080770;28;19917;-60
2022/12/01 05:21:15;;;;;;;;;;;;;;;;;;5085813;28;19912;-59
2022/12/01 05:23:41;;;;;;;;;;;;;;;;;;5082935;28;19924;-57
2022/12/01 05:26:07;;;;;;;;;;;;;;;;;;5085132;28;19994;-57
2022/12/01 05:28:33;;;;;;;;;;;;;;;;;;5085216;28;20344;-60
2022/12/01 05:30:58;;;;;;;;;;;;;;;;;;5083814;28;19958;-59
2022/12/01 05:33:24;;;;;;;;;;;;;;;;;;5085315;28;19912;-58
2022/12/01 05:35:50;;;;;;;;;;;;;;;;;;5078482;28;19934;-61
2022/12/01 05:38:16;;;;;;;;;;;;;;;;;;5091047;28;19912;-60
2022/12/01 05:40:42;;;;;;;;;;;;;;;;;;5083151;28;19987;-61
2022/12/01 05:43:08;;;;;;;;;;;;;;;;;;5092014;28;20436;-60
2022/12/01 05:45:34;;;;;;;;;;;;;;;;;;5086113;28;19916;-60
2022/12/01 05:48:00;;;;;;;;;;;;;;;;;;5091005;28;19916;-61
2022/12/01 05:50:25;;;;;;;;;;;;;;;;;;5089751;28;19919;-60
2022/12/01 05:52:51;;;;;;;;;;;;;;;;;;5092263;28;19916;-59
2022/12/01 05:55:17;;;;;;;;;;;;;;;;;;5088378;28;19915;-60
2022/12/01 05:57:43;;;;;;;;;;;;;;;;;;5086489;28;19912;-59
2022/12/01 06:00:09;;;;;;;;;;;;;;;;;;5091167;28;19984;-57
2022/12/01 06:02:35;;;;;;;;;;;;;;;;;;5088954;28;20491;-61
2022/12/01 06:05:01;;;;;;;;;;;;;;;;;;5084170;28;20007;-58
2022/12/01 06:07:26;;;;;;;;;;;;;;;;;;5088316;28;19912;-60
2022/12/01 06:09:52;;;;;;;;;;;;;;;;;;5090637;28;19916;-59
2022/12/01 06:12:18;;;;;;;;;;;;;;;;;;5081433;28;19912;-60
2022/12/01 06:14:44;;;;;;;;;;;;;;;;;;5082317;28;20412;-60
2022/12/01 06:17:10;;;;;;;;;;;;;;;;;;5088346;28;19995;-60
2022/12/01 06:19:36;;;;;;;;;;;;;;;;;;5088454;28;19926;-61
2022/12/01 06:22:02;;;;;;;;;;;;;;;;;;5089060;28;19932;-60
2022/12/01 06:24:27;;;;;;;;;;;;;;;;;;5084379;28;20394;-60
2022/12/01 06:26:53;;;;;;;;;;;;;;;;;;5088423;28;19919;-59
2022/12/01 06:29:19;;;;;;;;;;;;;;;;;;5089376;28;19912;-60
2022/12/01 06:31:45;;;;;;;;;;;;;;;;;;5089345;28;19912;-60
2022/12/01 06:34:11;;;;;;;;;;;;;;;;;;5089358;28;19916;-59
2022/12/01 06:36:37;;;;;;;;;;;;;;;;;;5092506;28;20028;-61
2022/12/01 06:39:03;;;;;;;;;;;;;;;;;;5090833;28;19912;-59
2022/12/01 06:41:28;;;;;;;;;;;;;;;;;;5091946;28;19916;-59
2022/12/01 06:43:54;;;;;;;;;;;;;;;;;;5089957;28;20374;-60
2022/12/01 06:46:20;;;;;;;;;;;;;;;;;;5084374;28;19917;-60
2022/12/01 06:48:46;;;;;;;;;;;;;;;;;;5086166;28;19909;-60
2022/12/01 06:51:12;;;;;;;;;;;;;;;;;;5089829;28;19919;-60
2022/12/01 06:53:38;;;;;;;;;;;;;;;;;;5085545;28;20002;-61
2022/12/01 06:56:04;;;;;;;;;;;;;;;;;;5088666;28;20517;-59
2022/12/01 06:58:29;;;;;;;;;;;;;;;;;;5088617;28;19954;-59
2022/12/01 07:00:57;;;;;;;;;;;;;;;;;;5085489;28;19942;-61
2022/12/01 07:03:23;;;;;;;;;;;;;;;;;;5089715;28;19987;-60
2022/12/01 07:05:49;;;;;;;;;;;;;;;;;;5087206;28;19916;-60
2022/12/01 07:08:15;;;;;;;;;;;;;;;;;;5085977;28;20459;-61
2022/12/01 07:10:40;;;;;;;;;;;;;;;;;;5082192;28;19935;-60
2022/12/01 07:13:06;;;;;;;;;;;;;;;;;;5086094;28;19958;-59
2022/12/01 07:15:32;;;;;;;;;;;;;;;;;;5082682;28;19908;-59
2022/12/01 07:17:58;;;;;;;;;;;;;;;;;;5089835;28;20333;-59
2022/12/01 07:20:24;;;;;;;;;;;;;;;;;;5083568;28;19919;-59
2022/12/01 07:22:50;;;;;;;;;;;;;;;;;;5083707;28;19922;-60
2022/12/01 07:25:16;;;;;;;;;;;;;;;;;;5085996;28;19924;-61
2022/12/01 07:27:41;;;;;;;;;;;;;;;;;;5088502;28;19973;-62
2022/12/01 07:30:07;;;;;;;;;;;;;;;;;;5085943;28;19920;-62
2022/12/01 07:32:33;;;;;;;;;;;;;;;;;;5087554;28;19915;-62
2022/12/01 07:34:59;;;;;;;;;;;;;;;;;;5087337;28;19923;-62
2022/12/01 07:37:25;;;;;;;;;;;;;;;;;;5089747;28;19912;-61
2022/12/01 07:39:51;;;;;;;;;;;;;;;;;;5084955;28;19947;-59
2022/12/01 07:42:17;;;;;;;;;;;;;;;;;;5089023;28;19912;-61
2022/12/01 07:44:42;;;;;;;;;;;;;;;;;;5087377;28;19938;-62
2022/12/01 07:47:08;;;;;;;;;;;;;;;;;;5088264;28;19923;-62
2022/12/01 07:49:34;;;;;;;;;;;;;;;;;;5069179;28;19919;-62
2022/12/01 07:52:00;;;;;;;;;;;;;;;;;;5084186;28;19912;-62
2022/12/01 07:54:26;;;;;;;;;;;;;;;;;;5086348;28;19912;-61
2022/12/01 07:56:53;;;;;;;;;;;;;;;;;;5084665;28;19913;-61
2022/12/01 07:59:19;;;;;;;;;;;;;;;;;;5080295;28;20031;-60
2022/12/01 08:01:45;;;;;;;;;;;;;;;;;;5078870;28;19942;-61
2022/12/01 08:04:11;;;;;;;;;;;;;;;;;;5078730;28;19920;-61
2022/12/01 08:06:37;;;;;;;;;;;;;;;;;;5080971;28;20328;-62
2022/12/01 08:09:02;;;;;;;;;;;;;;;;;;5080758;28;19923;-61
2022/12/01 08:11:28;;;;;;;;;;;;;;;;;;5078366;28;20440;-62
2022/12/01 08:13:54;;;;;;;;;;;;;;;;;;5083757;28;19920;-60
2022/12/01 08:16:20;;;;;;;;;;;;;;;;;;5079990;28;19923;-61
2022/12/01 08:18:46;;;;;;;;;;;;;;;;;;5080163;28;20439;-62
2022/12/01 08:21:12;;;;;;;;;;;;;;;;;;5079952;28;19909;-61
2022/12/01 08:23:38;;;;;;;;;;;;;;;;;;5086050;28;19923;-61
2022/12/01 08:26:04;;;;;;;;;;;;;;;;;;5083797;28;19912;-61
2022/12/01 08:28:30;;;;;;;;;;;;;;;;;;5086547;28;20007;-61
2022/12/01 08:30:56;;;;;;;;;;;;;;;;;;5080959;28;19921;-62
2022/12/01 08:33:21;;;;;;;;;;;;;;;;;;5084904;28;20304;-62
2022/12/01 08:35:47;;;;;;;;;;;;;;;;;;5079477;28;21258;-61
2022/12/01 08:38:14;;;;;;;;;;;;;;;;;;5087362;28;19912;-61
2022/12/01 08:40:40;;;;;;;;;;;;;;;;;;5085357;28;19912;-61
2022/12/01 08:43:06;;;;;;;;;;;;;;;;;;5087777;28;19915;-62
2022/12/01 08:45:32;;;;;;;;;;;;;;;;;;5080089;28;20080;-62
2022/12/01 08:47:58;;;;;;;;;;;;;;;;;;5086465;28;19916;-62
2022/12/01 08:50:25;;;;;;;;;;;;;;;;;;5083839;28;19909;-62
2022/12/01 08:52:50;;;;;;;;;;;;;;;;;;5085280;28;20397;-62
2022/12/01 08:55:16;;;;;;;;;;;;;;;;;;5090423;28;19908;-62
2022/12/01 08:57:42;;;;;;;;;;;;;;;;;;5090400;28;19916;-62
2022/12/01 09:00:09;;;;;;;;;;;;;;;;;;5090270;28;19908;-62
2022/12/01 09:02:34;;;;;;;;;;;;;;;;;;5088251;28;19916;-61
2022/12/01 09:05:00;;;;;;;;;;;;;;;;;;5084146;28;19916;-60
2022/12/01 09:07:26;;;;;;;;;;;;;;;;;;5080306;28;19912;-62
2022/12/01 09:09:52;;;;;;;;;;;;;;;;;;5089093;28;20439;-62
2022/12/01 09:12:18;;;;;;;;;;;;;;;;;;5092162;28;19935;-62
2022/12/01 09:14:48;;;;;;;;;;;;;;;;;;5091285;28;19912;-61
2022/12/01 09:17:14;;;;;;;;;;;;;;;;;;5087479;28;19908;-62
2022/12/01 09:19:40;;;;;;;;;;;;;;;;;;5093525;28;20385;-62
2022/12/01 09:22:06;;;;;;;;;;;;;;;;;;5093244;28;19961;-62
2022/12/01 09:24:31;;;;;;;;;;;;;;;;;;5094138;28;19938;-62
2022/12/01 09:26:57;;;;;;;;;;;;;;;;;;5092264;28;20356;-62
2022/12/01 09:29:23;;;;;;;;;;;;;;;;;;5092778;28;19977;-62
2022/12/01 09:31:49;;;;;;;;;;;;;;;;;;5093979;28;19996;-61
2022/12/01 09:34:15;;;;;;;;;;;;;;;;;;5088710;28;20378;-61
2022/12/01 09:36:41;;;;;;;;;;;;;;;;;;5080712;28;19920;-62
2022/12/01 09:39:07;;;;;;;;;;;;;;;;;;5082192;28;19912;-62
2022/12/01 09:41:32;;;;;;;;;;;;;;;;;;5090015;28;19912;-62
2022/12/01 09:43:58;;;;;;;;;;;;;;;;;;5087331;28;19959;-62
2022/12/01 09:46:24;;;;;;;;;;;;;;;;;;5107515;22;19955;-64
2022/12/01 09:48:50;;;;;;;;;;;;;;;;;;5085788;28;19920;-63
2022/12/01 09:51:16;;;;;;;;;;;;;;;;;;5083659;28;19920;-63
2022/12/01 09:53:42;;;;;;;;;;;;;;;;;;5086795;28;20317;-64
2022/12/01 09:56:08;;;;;;;;;;;;;;;;;;5091558;28;20010;-65
2022/12/01 09:58:34;;;;;;;;;;;;;;;;;;5072955;28;20062;-62
2022/12/01 10:00:59;;;;;;;;;;;;;;;;;;5071872;28;19917;-65
2022/12/01 10:03:25;;;;;;;;;;;;;;;;;;5072695;28;19921;-64
2022/12/01 10:05:53;;;;;;;;;;;;;;;;;;5069346;28;19922;-63
2022/12/01 10:08:19;;;;;;;;;;;;;;;;;;5072555;28;19912;-62
2022/12/01 10:10:45;;;;;;;;;;;;;;;;;;5070974;28;20398;-63
2022/12/01 10:13:11;;;;;;;;;;;;;;;;;;5071772;28;20043;-64
2022/12/01 10:15:37;;;;;;;;;;;;;;;;;;5068786;28;19916;-63
2022/12/01 10:18:03;;;;;;;;;;;;;;;;;;5062109;28;20002;-64
2022/12/01 10:20:28;;;;;;;;;;;;;;;;;;5062236;28;20011;-61
2022/12/01 10:22:54;;;;;;;;;;;;;;;;;;5069599;28;19916;-64
2022/12/01 10:25:20;;;;;;;;;;;;;;;;;;5068763;28;19919;-64
2022/12/01 10:27:46;;;;;;;;;;;;;;;;;;5065998;28;19915;-64
2022/12/01 10:30:12;;;;;;;;;;;;;;;;;;5067659;28;20007;-64
2022/12/01 10:32:38;;;;;;;;;;;;;;;;;;5067945;28;19916;-65
2022/12/01 10:35:04;;;;;;;;;;;;;;;;;;5061395;28;19920;-64
2022/12/01 10:37:30;;;;;;;;;;;;;;;;;;5068036;28;20011;-66
2022/12/01 10:39:56;;;;;;;;;;;;;;;;;;5066401;28;19924;-66
2022/12/01 10:42:21;;;;;;;;;;;;;;;;;;5063571;28;19915;-64
2022/12/01 10:44:47;;;;;;;;;;;;;;;;;;5062237;28;19972;-63
2022/12/01 10:47:13;;;;;;;;;;;;;;;;;;5061371;28;19920;-63
2022/12/01 10:49:39;;;;;;;;;;;;;;;;;;5062487;28;19920;-63
2022/12/01 10:52:05;;;;;;;;;;;;;;;;;;5068409;28;20403;-64
2022/12/01 10:54:31;;;;;;;;;;;;;;;;;;5069278;28;19916;-66
2022/12/01 10:56:57;;;;;;;;;;;;;;;;;;5065807;28;19916;-64
2022/12/01 10:59:23;;;;;;;;;;;;;;;;;;5069223;28;19916;-64
2022/12/01 11:01:48;;;;;;;;;;;;;;;;;;5064518;28;19951;-63
2022/12/01 11:04:14;;;;;;;;;;;;;;;;;;5062442;28;19921;-64
2022/12/01 11:06:40;;;;;;;;;;;;;;;;;;5066358;28;20788;-64
2022/12/01 11:09:06;;;;;;;;;;;;;;;;;;5062706;28;20226;-61
2022/12/01 11:11:32;;;;;;;;;;;;;;;;;;5065729;28;19958;-61
2022/12/01 11:13:58;;;;;;;;;;;;;;;;;;5066355;28;19956;-64
2022/12/01 11:16:24;;;;;;;;;;;;;;;;;;5068593;28;19923;-65
2022/12/01 11:18:49;;;;;;;;;;;;;;;;;;5066499;28;20435;-65
2022/12/01 11:21:15;;;;;;;;;;;;;;;;;;5067797;28;19931;-64
2022/12/01 11:23:41;;;;;;;;;;;;;;;;;;5065926;28;19920;-63
2022/12/01 11:26:07;;;;;;;;;;;;;;;;;;5059107;28;19924;-63
2022/12/01 11:28:33;;;;;;;;;;;;;;;;;;5067183;28;19921;-62
2022/12/01 11:30:59;;;;;;;;;;;;;;;;;;5064116;28;19921;-65
2022/12/01 11:33:25;;;;;;;;;;;;;;;;;;5063525;28;19967;-66
2022/12/01 11:35:51;;;;;;;;;;;;;;;;;;5063267;28;20751;-65
2022/12/01 11:38:16;;;;;;;;;;;;;;;;;;5061585;28;19912;-64
2022/12/01 11:40:42;;;;;;;;;;;;;;;;;;5065136;28;19916;-64
2022/12/01 11:43:08;;;;;;;;;;;;;;;;;;5058753;28;19913;-65
2022/12/01 11:45:35;;;;;;;;;;;;;;;;;;5066883;28;20298;-65
2022/12/01 11:48:01;;;;;;;;;;;;;;;;;;5059278;28;19923;-64
2022/12/01 11:50:27;;;;;;;;;;;;;;;;;;5062484;28;20313;-65
2022/12/01 11:52:53;;;;;;;;;;;;;;;;;;5055607;28;19927;-65
2022/12/01 11:55:19;;;;;;;;;;;;;;;;;;5057826;28;19913;-64
2022/12/01 11:57:45;;;;;;;;;;;;;;;;;;5059885;28;19916;-63
2022/12/01 12:00:11;;;;;;;;;;;;;;;;;;5066612;28;20420;-65
2022/12/01 12:02:37;;;;;;;;;;;;;;;;;;5062610;28;19916;-62
2022/12/01 12:05:03;;;;;;;;;;;;;;;;;;5061250;28;19916;-65
2022/12/01 12:07:28;;;;;;;;;;;;;;;;;;5066525;28;19916;-64
2022/12/01 12:09:54;;;;;;;;;;;;;;;;;;5064757;28;19969;-65
2022/12/01 12:12:20;;;;;;;;;;;;;;;;;;5067976;28;19908;-63
2022/12/01 12:14:47;;;;;;;;;;;;;;;;;;5065592;28;19919;-64
2022/12/01 12:17:13;;;;;;;;;;;;;;;;;;5065769;28;19923;-63
2022/12/01 12:19:39;;;;;;;;;;;;;;;;;;5065686;28;19920;-63
2022/12/01 12:22:05;;;;;;;;;;;;;;;;;;5060338;28;19924;-63
2022/12/01 12:24:31;;;;;;;;;;;;;;;;;;5065001;28;19920;-65
2022/12/01 12:26:57;;;;;;;;;;;;;;;;;;5066874;28;19913;-65
2022/12/01 12:29:23;;;;;;;;;;;;;;;;;;5060175;28;19998;-65
2022/12/01 12:31:49;;;;;;;;;;;;;;;;;;5061281;28;19917;-66
2022/12/01 12:34:15;;;;;;;;;;;;;;;;;;5067741;28;19913;-64
2022/12/01 12:36:40;;;;;;;;;;;;;;;;;;5064820;28;19916;-64
2022/12/01 12:39:06;;;;;;;;;;;;;;;;;;5060941;28;19919;-64
2022/12/01 12:41:32;;;;;;;;;;;;;;;;;;5061573;28;19916;-64
2022/12/01 12:43:58;;;;;;;;;;;;;;;;;;5067048;28;19999;-64
2022/12/01 12:46:24;;;;;;;;;;;;;;;;;;5063980;28;20366;-65
2022/12/01 12:48:50;;;;;;;;;;;;;;;;;;5052605;28;19920;-66
2022/12/01 12:51:16;;;;;;;;;;;;;;;;;;5053776;28;19920;-64
2022/12/01 12:53:41;;;;;;;;;;;;;;;;;;5056993;28;19916;-63
2022/12/01 12:56:07;;;;;;;;;;;;;;;;;;5051146;28;20289;-65
2022/12/01 12:58:33;;;;;;;;;;;;;;;;;;5058992;28;19917;-64
2022/12/01 13:00:59;;;;;;;;;;;;;;;;;;5057613;28;19916;-65
2022/12/01 13:03:25;;;;;;;;;;;;;;;;;;5058135;28;19924;-65
2022/12/01 13:05:51;;;;;;;;;;;;;;;;;;5059038;28;19952;-65
2022/12/01 13:08:17;;;;;;;;;;;;;;;;;;5061455;28;19916;-64
2022/12/01 13:10:42;;;;;;;;;;;;;;;;;;5062836;28;19917;-64
2022/12/01 13:13:08;;;;;;;;;;;;;;;;;;5061849;28;19921;-65
2022/12/01 13:15:35;;;;;;;;;;;;;;;;;;5060899;28;20297;-65
2022/12/01 13:18:01;;;;;;;;;;;;;;;;;;5059840;28;19919;-64
2022/12/01 13:20:27;;;;;;;;;;;;;;;;;;5062448;28;19955;-64
2022/12/01 13:22:53;;;;;;;;;;;;;;;;;;5063807;28;20778;-64
2022/12/01 13:25:19;;;;;;;;;;;;;;;;;;5056872;28;19921;-62
2022/12/01 13:27:45;;;;;;;;;;;;;;;;;;5058604;28;19920;-64
2022/12/01 13:30:11;;;;;;;;;;;;;;;;;;5059638;28;19916;-65
2022/12/01 13:32:37;;;;;;;;;;;;;;;;;;5060954;28;19923;-64
2022/12/01 13:35:05;;;;;;;;;;;;;;;;;;5059647;28;19956;-63
2022/12/01 13:37:30;;;;;;;;;;;;;;;;;;5058040;28;19921;-66
2022/12/01 13:39:56;;;;;;;;;;;;;;;;;;5064744;28;19923;-65
2022/12/01 13:42:22;;;;;;;;;;;;;;;;;;5065306;28;20386;-62
2022/12/01 13:44:48;;;;;;;;;;;;;;;;;;5062446;28;19932;-65
2022/12/01 13:47:14;;;;;;;;;;;;;;;;;;5059463;28;19978;-65
2022/12/01 13:49:41;;;;;;;;;;;;;;;;;;5059206;28;19923;-65
2022/12/01 13:52:06;;;;;;;;;;;;;;;;;;5057469;28;19912;-64
2022/12/01 13:54:33;;;;;;;;;;;;;;;;;;5062837;28;20397;-64
2022/12/01 13:56:59;;;;;;;;;;;;;;;;;;5059703;28;19944;-64
2022/12/01 13:59:25;;;;;;;;;;;;;;;;;;5066027;28;19970;-63
2022/12/01 14:01:51;;;;;;;;;;;;;;;;;;5064626;28;19939;-64
2022/12/01 14:04:16;;;;;;;;;;;;;;;;;;5062179;28;20019;-64
2022/12/01 14:06:45;;;;;;;;;;;;;;;;;;5056624;28;19916;-65
2022/12/01 14:09:11;;;;;;;;;;;;;;;;;;5061497;28;20504;-66
2022/12/01 14:11:37;;;;;;;;;;;;;;;;;;5064746;28;19930;-66
2022/12/01 14:14:03;;;;;;;;;;;;;;;;;;5068432;28;20307;-66
2022/12/01 14:16:28;;;;;;;;;;;;;;;;;;5058758;28;20061;-64
2022/12/01 14:18:54;;;;;;;;;;;;;;;;;;5061201;28;19931;-67
2022/12/01 14:21:20;;;;;;;;;;;;;;;;;;5060062;28;19912;-64
2022/12/01 14:23:47;;;;;;;;;;;;;;;;;;5065791;28;20578;-63
2022/12/01 14:26:13;;;;;;;;;;;;;;;;;;5065903;28;19957;-64
2022/12/01 14:28:39;;;;;;;;;;;;;;;;;;5070471;28;20366;-64
2022/12/01 14:31:04;;;;;;;;;;;;;;;;;;5068432;28;20374;-64
2022/12/01 14:33:30;;;;;;;;;;;;;;;;;;5065579;28;19999;-64
2022/12/01 14:35:56;;;;;;;;;;;;;;;;;;5070281;28;19923;-64
2022/12/01 14:38:22;;;;;;;;;;;;;;;;;;5067915;28;19913;-64
2022/12/01 14:40:48;;;;;;;;;;;;;;;;;;5068802;28;19927;-63
2022/12/01 14:45:58;;;;;;;;;;;;;;;;;;5065509;28;20582;-63
2022/12/01 14:48:24;;;;;;;;;;;;;;;;;;5067917;28;19926;-65
2022/12/01 14:50:50;;;;;;;;;;;;;;;;;;5067123;28;19999;-63
2022/12/01 14:53:16;;;;;;;;;;;;;;;;;;5064633;28;19913;-63
2022/12/01 14:55:42;;;;;;;;;;;;;;;;;;5063757;28;19912;-63
2022/12/01 14:58:08;;;;;;;;;;;;;;;;;;5065155;28;20301;-63
2022/12/01 15:00:34;;;;;;;;;;;;;;;;;;5067388;28;20015;-63
2022/12/01 15:03:00;;;;;;;;;;;;;;;;;;5063786;28;20461;-64
2022/12/01 15:05:26;;;;;;;;;;;;;;;;;;5058119;28;19916;-66
2022/12/01 15:07:52;;;;;;;;;;;;;;;;;;5064173;28;19912;-61
2022/12/01 15:10:17;;;;;;;;;;;;;;;;;;5065281;28;19986;-63
2022/12/01 15:12:43;;;;;;;;;;;;;;;;;;5066894;28;19908;-64
2022/12/01 15:15:09;;;;;;;;;;;;;;;;;;5054642;28;19913;-64
2022/12/01 15:17:36;;;;;;;;;;;;;;;;;;5063464;28;19958;-61
2022/12/01 15:20:02;;;;;;;;;;;;;;;;;;5066551;28;19909;-63
2022/12/01 15:22:28;;;;;;;;;;;;;;;;;;5054780;28;20391;-64
2022/12/01 15:24:54;;;;;;;;;;;;;;;;;;5065737;28;20404;-64
2022/12/01 15:27:20;;;;;;;;;;;;;;;;;;5061733;28;19935;-63
2022/12/01 15:29:46;;;;;;;;;;;;;;;;;;5068749;28;20003;-66
2022/12/01 15:32:11;;;;;;;;;;;;;;;;;;5062092;28;19913;-65
2022/12/01 15:34:37;;;;;;;;;;;;;;;;;;5065974;28;19917;-64
2022/12/01 15:37:03;;;;;;;;;;;;;;;;;;5059369;28;20290;-65
2022/12/01 15:39:29;;;;;;;;;;;;;;;;;;5064269;28;19912;-64
2022/12/01 15:41:55;;;;;;;;;;;;;;;;;;5066076;28;20421;-64
2022/12/01 15:44:21;;;;;;;;;;;;;;;;;;5065668;28;19917;-60
2022/12/01 15:46:47;;;;;;;;;;;;;;;;;;5067944;28;19920;-66
2022/12/01 15:49:13;;;;;;;;;;;;;;;;;;5114019;22;20278;-64
2022/12/01 15:51:38;;;;;;;;;;;;;;;;;;5088228;28;20389;-64
2022/12/01 15:54:04;;;;;;;;;;;;;;;;;;5085383;28;19912;-64
2022/12/01 15:56:30;;;;;;;;;;;;;;;;;;5089339;28;19919;-64
2022/12/01 15:58:56;;;;;;;;;;;;;;;;;;5088648;28;19919;-64
2022/12/01 16:01:22;;;;;;;;;;;;;;;;;;5081913;28;20294;-63
2022/12/01 16:03:48;;;;;;;;;;;;;;;;;;5084790;28;19928;-63
2022/12/01 16:06:14;;;;;;;;;;;;;;;;;;5082368;28;19923;-63
2022/12/01 16:08:42;;;;;;;;;;;;;;;;;;5085570;28;20249;-63
2022/12/01 16:11:08;;;;;;;;;;;;;;;;;;5083179;28;20086;-64
2022/12/01 16:13:34;;;;;;;;;;;;;;;;;;5067412;28;19919;-66
2022/12/01 16:15:59;;;;;;;;;;;;;;;;;;5080710;28;20008;-64
2022/12/01 16:18:25;;;;;;;;;;;;;;;;;;5086274;28;19958;-63
2022/12/01 16:20:51;;;;;;;;;;;;;;;;;;5083790;28;19930;-64
2022/12/01 16:23:17;;;;;;;;;;;;;;;;;;5088206;28;20370;-64
2022/12/01 16:25:43;;;;;;;;;;;;;;;;;;5078432;28;19912;-64
2022/12/01 16:28:09;;;;;;;;;;;;;;;;;;5080125;28;19913;-60
2022/12/01 16:30:35;;;;;;;;;;;;;;;;;;5080545;28;19978;-59
2022/12/01 16:33:01;;;;;;;;;;;;;;;;;;5085668;28;19917;-60
2022/12/01 16:35:29;;;;;;;;;;;;;;;;;;5088084;28;19913;-58
2022/12/01 16:37:55;;;;;;;;;;;;;;;;;;5081092;28;19924;-56
2022/12/01 16:40:20;;;;;;;;;;;;;;;;;;5081627;28;20327;-59
2022/12/01 16:42:48;;;;;;;;;;;;;;;;;;5085964;28;19942;-58